Time;durP1;ratioP1;P1;durP2;ratioP2;P2;SDS_P1;SDS_P2;PMS_P1;PMS_P2;Temp;Humidity;BMP_temperature;BMP_pressure;BME280_temperature;BME280_humidity;BME280_pressure;Samples;Min_cycle;Max_cycle;Signal;HPM_P1;HPM_P2
2021/11/19 00:00:19;;;;;;;19.08;17.33;;;5.70;99.90;;;;;;4160751;28;20037;-48
2021/11/19 00:02:22;;;;;;;18.35;16.50;;;5.70;99.90;;;;;;4152072;28;20091;-48
2021/11/19 00:04:24;;;;;;;;;;;5.80;99.90;;;;;;4159614;28;20045;-47
2021/11/19 00:06:26;;;;;;;17.75;15.82;;;5.70;99.90;;;;;;4150882;28;19921;-48
2021/11/19 00:08:29;;;;;;;35.60;26.70;;;5.70;99.90;;;;;;4161831;28;20041;-47
2021/11/19 00:10:31;;;;;;;35.33;26.38;;;5.70;99.90;;;;;;4158454;28;20386;-47
2021/11/19 00:12:34;;;;;;;23.48;20.75;;;5.70;99.90;;;;;;4159272;28;20049;-47
2021/11/19 00:14:36;;;;;;;19.83;17.42;;;5.70;99.90;;;;;;4158194;28;20068;-46
2021/11/19 00:16:40;;;;;;;49.72;21.40;;;5.70;99.90;;;;;;4154861;28;20038;-47
2021/11/19 00:18:43;;;;;;;41.03;22.10;;;5.60;99.90;;;;;;4154671;28;20046;-48
2021/11/19 00:20:45;;;;;;;237.25;25.83;;;5.50;99.90;;;;;;4160810;28;20405;-47
2021/11/19 00:22:47;;;;;;;204.45;22.10;;;5.40;99.90;;;;;;4158143;28;20108;-47
2021/11/19 00:24:49;;;;;;;;;;;5.30;99.90;;;;;;4160431;28;20095;-51
2021/11/19 00:26:52;;;;;;;19.02;16.25;;;5.30;99.90;;;;;;4157406;28;19943;-49
2021/11/19 00:28:55;;;;;;;18.52;16.58;;;5.40;99.90;;;;;;4159831;28;20632;-48
2021/11/19 00:30:57;;;;;;;17.55;15.85;;;5.40;99.90;;;;;;4155302;28;20064;-49
2021/11/19 00:32:59;;;;;;;19.10;15.48;;;5.50;99.90;;;;;;4162045;28;20509;-51
2021/11/19 00:35:02;;;;;;;17.50;16.08;;;5.60;99.90;;;;;;4157750;28;20386;-51
2021/11/19 00:37:05;;;;;;;16.00;14.70;;;5.60;99.90;;;;;;4160294;28;20053;-50
2021/11/19 00:39:11;;;;;;;17.45;15.30;;;5.60;99.90;;;;;;4158867;28;20536;-51
2021/11/19 00:41:14;;;;;;;15.35;14.00;;;5.60;99.90;;;;;;4148854;28;20089;-51
2021/11/19 00:43:17;;;;;;;19.38;17.02;;;5.60;99.90;;;;;;4156165;28;20501;-50
2021/11/19 00:45:21;;;;;;;17.27;15.90;;;5.50;99.90;;;;;;4162263;28;20045;-50
2021/11/19 00:47:24;;;;;;;16.55;14.90;;;5.50;99.90;;;;;;4160856;28;20041;-51
2021/11/19 00:49:31;;;;;;;15.68;14.30;;;5.40;99.90;;;;;;4157504;28;20037;-51
2021/11/19 00:51:36;;;;;;;16.45;15.05;;;5.50;99.90;;;;;;4160962;28;20439;-50
2021/11/19 00:53:42;;;;;;;14.30;12.95;;;5.50;99.90;;;;;;4163204;28;20413;-50
2021/11/19 00:55:44;;;;;;;12.02;11.27;;;5.40;99.90;;;;;;4161842;28;20041;-50
2021/11/19 00:57:46;;;;;;;11.88;11.10;;;5.50;99.90;;;;;;4164933;28;20064;-51
2021/11/19 00:59:49;;;;;;;10.60;10.10;;;5.50;99.90;;;;;;4162055;28;20029;-51
2021/11/19 01:01:57;;;;;;;12.93;12.13;;;5.50;99.90;;;;;;4157072;28;20112;-51
2021/11/19 01:04:02;;;;;;;25.83;13.60;;;5.50;99.90;;;;;;4161959;28;20053;-51
2021/11/19 01:06:05;;;;;;;137.90;20.48;;;5.60;99.90;;;;;;4160795;28;20148;-51
2021/11/19 01:08:07;;;;;;;48.97;18.95;;;5.30;99.90;;;;;;4163063;28;20043;-50
2021/11/19 01:10:17;;;;;;;154.68;22.00;;;5.10;99.90;;;;;;4161453;28;20076;-50
2021/11/19 01:12:24;;;;;;;346.77;30.83;;;4.90;99.90;;;;;;4158161;28;20045;-50
2021/11/19 01:14:36;;;;;;;124.00;23.15;;;4.80;99.90;;;;;;4153139;28;20048;-49
2021/11/19 01:16:51;;;;;;;18.25;16.45;;;4.60;99.90;;;;;;4163971;28;20053;-51
2021/11/19 01:19:00;;;;;;;18.05;16.50;;;4.80;99.90;;;;;;4159643;28;20048;-51
2021/11/19 01:21:11;;;;;;;141.50;21.58;;;5.00;99.90;;;;;;4164432;28;20056;-50
2021/11/19 01:23:15;;;;;;;86.05;17.67;;;5.10;99.90;;;;;;4161122;28;20541;-49
2021/11/19 01:25:20;;;;;;;17.95;16.08;;;5.00;99.90;;;;;;4157827;28;20456;-50
2021/11/19 01:27:22;;;;;;;15.48;14.43;;;5.00;99.90;;;;;;4157124;28;20045;-50
2021/11/19 01:29:25;;;;;;;35.53;14.05;;;4.90;99.90;;;;;;4154786;28;20085;-50
2021/11/19 01:31:34;;;;;;;14.88;13.63;;;5.00;99.90;;;;;;4158699;28;20056;-50
2021/11/19 01:33:37;;;;;;;53.20;16.50;;;5.00;99.90;;;;;;4163824;28;20096;-51
2021/11/19 01:35:39;;;;;;;;;;;4.90;99.90;;;;;;4158458;28;20128;-51
2021/11/19 01:37:42;;;;;;;65.57;16.63;;;4.70;99.90;;;;;;4163690;28;19921;-51
2021/11/19 01:39:45;;;;;;;38.17;14.10;;;4.60;99.90;;;;;;4159760;28;20037;-47
2021/11/19 01:41:52;;;;;;;54.33;13.35;;;4.60;99.90;;;;;;4148181;28;20618;-48
2021/11/19 01:43:55;;;;;;;21.77;14.32;;;4.60;99.90;;;;;;4159360;28;20033;-48
2021/11/19 01:46:00;;;;;;;49.55;14.10;;;4.50;99.90;;;;;;4153983;28;20038;-47
2021/11/19 01:48:05;;;;;;;16.10;13.25;;;4.40;99.90;;;;;;4159048;28;20551;-49
2021/11/19 01:50:30;;;;;;;13.07;11.48;;;4.40;99.90;;;;;;4162425;28;20037;-47
2021/11/19 01:52:42;;;;;;;13.25;12.45;;;4.50;99.90;;;;;;4161323;28;20080;-47
2021/11/19 01:54:56;;;;;;;14.05;13.13;;;4.60;99.90;;;;;;4160784;28;20049;-47
2021/11/19 01:57:04;;;;;;;15.93;14.70;;;4.70;99.90;;;;;;4162618;28;20052;-47
2021/11/19 01:59:14;;;;;;;17.58;16.42;;;4.80;99.90;;;;;;4159353;28;20052;-47
2021/11/19 02:01:24;;;;;;;15.07;13.98;;;4.80;99.90;;;;;;4161445;28;20092;-48
2021/11/19 02:03:29;;;;;;;15.88;14.90;;;4.80;99.90;;;;;;4160234;28;20048;-47
2021/11/19 02:05:56;;;;;;;13.10;12.40;;;4.70;99.90;;;;;;4155811;28;20612;-47
2021/11/19 02:08:04;;;;;;;13.27;11.95;;;4.70;99.90;;;;;;4160226;28;20144;-47
2021/11/19 02:10:18;;;;;;;15.13;14.07;;;4.80;99.90;;;;;;4161850;28;20045;-48
2021/11/19 02:12:49;;;;;;;12.95;12.38;;;4.90;99.90;;;;;;4161122;28;20041;-48
2021/11/19 02:15:03;;;;;;;11.80;11.20;;;4.90;99.90;;;;;;4143292;28;20527;-47
2021/11/19 02:17:07;;;;;;;12.50;11.80;;;5.00;99.90;;;;;;4162843;28;20052;-47
2021/11/19 02:19:13;;;;;;;11.07;10.52;;;4.90;99.90;;;;;;4161513;28;20485;-47
2021/11/19 02:21:42;;;;;;;9.32;8.68;;;4.80;99.90;;;;;;4161822;28;20052;-48
2021/11/19 02:23:50;;;;;;;11.60;10.85;;;4.80;99.90;;;;;;4156626;28;20080;-47
2021/11/19 02:26:04;;;;;;;11.13;10.38;;;4.80;99.90;;;;;;4157671;28;20037;-47
2021/11/19 02:28:11;;;;;;;9.55;8.93;;;4.70;99.90;;;;;;4159626;28;20069;-47
2021/11/19 02:30:23;;;;;;;11.65;11.18;;;4.70;99.90;;;;;;4163599;28;20466;-47
2021/11/19 02:32:30;;;;;;;17.60;16.20;;;4.70;99.90;;;;;;4160088;28;20128;-49
2021/11/19 02:34:33;;;;;;;11.68;10.95;;;4.70;99.90;;;;;;4160604;28;20444;-47
2021/11/19 02:36:49;;;;;;;12.00;11.32;;;4.70;99.90;;;;;;4160129;28;20045;-47
2021/11/19 02:39:00;;;;;;;12.48;11.73;;;4.70;99.90;;;;;;4161914;28;20044;-47
2021/11/19 02:41:03;;;;;;;10.82;10.27;;;4.70;99.90;;;;;;4157051;28;20496;-48
2021/11/19 02:43:22;;;;;;;12.07;10.90;;;4.80;99.90;;;;;;4149975;28;20040;-47
2021/11/19 02:45:37;;;;;;;13.07;12.13;;;4.70;99.90;;;;;;4161268;28;20041;-46
2021/11/19 02:47:40;;;;;;;16.00;14.52;;;4.70;99.90;;;;;;4159875;28;20504;-49
2021/11/19 02:49:43;;;;;;;15.60;14.38;;;4.60;99.90;;;;;;4161601;28;20079;-47
2021/11/19 02:51:47;;;;;;;15.55;14.15;;;4.60;99.90;;;;;;4160851;28;20045;-46
2021/11/19 02:53:50;;;;;;;16.05;14.23;;;4.70;99.90;;;;;;4155789;28;20096;-47
2021/11/19 02:55:54;;;;;;;14.88;13.43;;;4.70;99.90;;;;;;4155660;28;20041;-47
2021/11/19 02:57:57;;;;;;;14.10;12.98;;;4.70;99.90;;;;;;4160850;28;20042;-47
2021/11/19 03:00:15;;;;;;;11.73;10.93;;;4.60;99.90;;;;;;4160067;28;20034;-48
2021/11/19 03:02:21;;;;;;;13.43;12.57;;;4.60;99.90;;;;;;4162171;28;20076;-46
2021/11/19 03:04:34;;;;;;;13.38;12.52;;;4.60;99.90;;;;;;4158127;28;20555;-47
2021/11/19 03:06:41;;;;;;;12.85;11.93;;;4.50;99.90;;;;;;4153048;28;20120;-48
2021/11/19 03:08:44;;;;;;;11.07;10.50;;;4.40;99.90;;;;;;4159605;28;20037;-48
2021/11/19 03:10:49;;;;;;;11.95;10.88;;;4.40;99.90;;;;;;4158973;28;20053;-47
2021/11/19 03:12:52;;;;;;;11.48;10.98;;;4.40;99.90;;;;;;4159056;28;20124;-48
2021/11/19 03:14:56;;;;;;;11.95;11.35;;;4.50;99.90;;;;;;4161201;28;20473;-47
2021/11/19 03:16:58;;;;;;;12.10;11.40;;;4.60;99.90;;;;;;4160202;28;20393;-47
2021/11/19 03:19:00;;;;;;;11.43;10.70;;;4.60;99.90;;;;;;4159871;28;20809;-47
2021/11/19 03:21:06;;;;;;;9.70;9.10;;;4.60;99.90;;;;;;4158791;28;20084;-47
2021/11/19 03:23:09;;;;;;;10.80;10.05;;;4.60;99.90;;;;;;4159735;28;20675;-48
2021/11/19 03:25:14;;;;;;;11.23;10.55;;;4.50;99.90;;;;;;4161923;28;20041;-48
2021/11/19 03:27:17;;;;;;;13.35;12.50;;;4.40;99.90;;;;;;4160478;28;20073;-47
2021/11/19 03:29:22;;;;;;;20.17;14.50;;;4.30;99.90;;;;;;4158942;28;20449;-46
2021/11/19 03:31:24;;;;;;;20.65;12.60;;;4.20;99.90;;;;;;4160594;28;20072;-48
2021/11/19 03:33:28;;;;;;;26.60;13.43;;;4.10;99.90;;;;;;4160929;28;20037;-47
2021/11/19 03:35:31;;;;;;;48.58;12.73;;;4.10;99.90;;;;;;4159647;28;20528;-48
2021/11/19 03:37:33;;;;;;;153.93;13.52;;;4.10;99.90;;;;;;4161951;28;20047;-47
2021/11/19 03:39:37;;;;;;;10.98;10.40;;;4.10;99.90;;;;;;4154249;28;20045;-47
2021/11/19 03:41:41;;;;;;;10.52;9.93;;;4.10;99.90;;;;;;4159253;28;20068;-48
2021/11/19 03:44:17;;;;;;;8.48;8.18;;;4.20;99.90;;;;;;4151509;28;20121;-48
2021/11/19 03:46:24;;;;;;;9.15;8.35;;;4.20;99.90;;;;;;4157873;28;20041;-49
2021/11/19 03:48:27;;;;;;;9.10;8.48;;;4.20;99.90;;;;;;4155697;28;20124;-48
2021/11/19 03:50:34;;;;;;;;;;;4.20;99.90;;;;;;4158794;28;20041;-47
2021/11/19 03:52:38;;;;;;;8.20;7.90;;;4.10;99.90;;;;;;4158811;28;19925;-47
2021/11/19 03:54:43;;;;;;;9.38;8.98;;;4.00;99.90;;;;;;4162086;28;20080;-47
2021/11/19 03:56:47;;;;;;;8.57;8.02;;;4.10;99.90;;;;;;4158470;28;20115;-48
2021/11/19 03:58:50;;;;;;;12.15;11.23;;;4.10;99.90;;;;;;4161576;28;20473;-47
2021/11/19 04:01:05;;;;;;;10.32;9.82;;;4.20;99.90;;;;;;4158848;28;20033;-46
2021/11/19 04:03:10;;;;;;;10.02;9.50;;;4.20;99.90;;;;;;4160768;28;20064;-46
2021/11/19 04:05:13;;;;;;;13.30;12.38;;;4.20;99.90;;;;;;4158807;28;20045;-48
2021/11/19 04:07:17;;;;;;;12.15;11.55;;;4.20;99.90;;;;;;4151878;28;20073;-47
2021/11/19 04:09:19;;;;;;;43.03;13.00;;;4.10;99.90;;;;;;4157827;28;20037;-48
2021/11/19 04:11:23;;;;;;;150.70;16.10;;;4.00;99.90;;;;;;4152973;28;20931;-47
2021/11/19 04:13:25;;;;;;;63.83;12.85;;;3.70;99.90;;;;;;4158077;28;20044;-48
2021/11/19 04:15:33;;;;;;;37.47;13.57;;;3.60;99.90;;;;;;4160066;28;20063;-46
2021/11/19 04:17:35;;;;;;;226.73;19.60;;;3.40;99.90;;;;;;4160204;28;20048;-47
2021/11/19 04:19:38;;;;;;;64.50;14.63;;;3.30;99.90;;;;;;4159772;28;20061;-48
2021/11/19 04:21:41;;;;;;;61.50;14.80;;;3.20;99.90;;;;;;4162933;28;20446;-46
2021/11/19 04:23:44;;;;;;;46.05;14.95;;;3.10;99.90;;;;;;4163646;28;20045;-47
2021/11/19 04:25:46;;;;;;;129.68;15.82;;;3.20;99.90;;;;;;4163776;28;20856;-47
2021/11/19 04:27:49;;;;;;;113.88;17.80;;;3.10;99.90;;;;;;4163459;28;20042;-47
2021/11/19 04:29:51;;;;;;;69.68;20.27;;;3.00;99.90;;;;;;4163370;28;20061;-46
2021/11/19 04:31:53;;;;;;;56.40;17.02;;;3.10;99.90;;;;;;4153103;28;20532;-46
2021/11/19 04:33:57;;;;;;;16.98;15.00;;;3.30;99.90;;;;;;4162495;28;20041;-46
2021/11/19 04:35:59;;;;;;;13.63;11.38;;;3.40;99.90;;;;;;4153602;28;20112;-46
2021/11/19 04:38:04;;;;;;;58.55;9.05;;;3.60;99.90;;;;;;4162683;28;20045;-47
2021/11/19 04:40:08;;;;;;;32.22;9.77;;;3.50;99.90;;;;;;4162042;28;20115;-47
2021/11/19 04:42:10;;;;;;;8.60;8.25;;;3.50;99.90;;;;;;4163490;28;20420;-47
2021/11/19 04:44:14;;;;;;;13.35;12.30;;;3.50;99.90;;;;;;4162584;28;20424;-48
2021/11/19 04:46:16;;;;;;;12.40;11.70;;;3.50;99.90;;;;;;4163285;28;20099;-46
2021/11/19 04:48:19;;;;;;;9.68;9.07;;;3.60;99.90;;;;;;4157622;28;20527;-47
2021/11/19 04:50:25;;;;;;;11.30;10.55;;;3.60;99.90;;;;;;4158108;28;20046;-48
2021/11/19 04:52:27;;;;;;;8.32;8.02;;;3.70;99.90;;;;;;4157002;28;20128;-47
2021/11/19 04:54:30;;;;;;;8.85;8.45;;;3.50;99.90;;;;;;4164504;28;20072;-46
2021/11/19 04:56:32;;;;;;;10.27;9.88;;;3.40;99.90;;;;;;4162698;28;20045;-48
2021/11/19 04:58:34;;;;;;;10.45;9.63;;;3.40;99.90;;;;;;4162164;28;20570;-47
2021/11/19 05:00:44;;;;;;;12.77;12.13;;;3.40;99.90;;;;;;4161010;28;20143;-48
2021/11/19 05:02:47;;;;;;;10.10;9.68;;;3.30;99.90;;;;;;4163969;28;20041;-49
2021/11/19 05:04:49;;;;;;;67.68;14.00;;;3.30;99.90;;;;;;4158029;28;20056;-46
2021/11/19 05:06:52;;;;;;;41.60;17.27;;;3.20;99.90;;;;;;4164150;28;20041;-46
2021/11/19 05:08:54;;;;;;;15.82;14.80;;;3.10;99.90;;;;;;4160979;28;20056;-47
2021/11/19 05:10:57;;;;;;;22.63;13.48;;;3.10;99.90;;;;;;4158538;28;20084;-48
2021/11/19 05:13:00;;;;;;;25.13;17.35;;;3.10;99.90;;;;;;4157526;28;20072;-50
2021/11/19 05:15:04;;;;;;;36.35;14.43;;;3.00;99.90;;;;;;4157036;28;20049;-47
2021/11/19 05:17:09;;;;;;;112.95;16.73;;;3.00;99.90;;;;;;4156630;28;20045;-51
2021/11/19 05:19:11;;;;;;;10.23;10.00;;;3.10;99.90;;;;;;4163839;28;20669;-50
2021/11/19 05:21:17;;;;;;;9.82;9.43;;;3.20;99.90;;;;;;4160626;28;20501;-51
2021/11/19 05:23:20;;;;;;;10.85;10.27;;;3.30;99.90;;;;;;4162224;28;20044;-49
2021/11/19 05:25:26;;;;;;;13.63;11.75;;;3.40;99.90;;;;;;4158027;28;20183;-49
2021/11/19 05:27:28;;;;;;;15.63;13.00;;;3.40;99.90;;;;;;4161664;28;20089;-48
2021/11/19 05:29:32;;;;;;;13.77;12.73;;;3.60;99.90;;;;;;4161156;28;20045;-48
2021/11/19 05:31:35;;;;;;;15.27;14.68;;;3.70;99.90;;;;;;4163503;28;20050;-49
2021/11/19 05:33:45;;;;;;;39.20;12.52;;;3.70;99.90;;;;;;4161259;28;20423;-51
2021/11/19 05:35:49;;;;;;;84.30;19.05;;;3.70;99.90;;;;;;4161092;28;20046;-52
2021/11/19 05:37:52;;;;;;;39.58;16.45;;;3.50;99.90;;;;;;4159864;28;20042;-49
2021/11/19 05:39:54;;;;;;;118.75;18.85;;;3.50;99.90;;;;;;4160212;28;20164;-51
2021/11/19 05:41:56;;;;;;;126.35;19.70;;;3.30;99.90;;;;;;4161047;28;20072;-50
2021/11/19 05:43:59;;;;;;;;;;;3.30;99.90;;;;;;4164333;28;20412;-49
2021/11/19 05:46:02;;;;;;;18.17;16.83;;;3.20;99.90;;;;;;4158850;28;19971;-49
2021/11/19 05:48:07;;;;;;;13.82;13.32;;;3.30;99.90;;;;;;4162850;28;20406;-50
2021/11/19 05:50:11;;;;;;;16.10;15.40;;;3.30;99.90;;;;;;4160082;28;20046;-50
2021/11/19 05:52:13;;;;;;;14.77;14.18;;;3.40;99.90;;;;;;4161731;28;20076;-48
2021/11/19 05:54:16;;;;;;;;;;;3.50;99.90;;;;;;4159341;28;20045;-50
2021/11/19 05:56:20;;;;;;;13.85;12.77;;;3.50;99.90;;;;;;4157983;28;20418;-51
2021/11/19 05:58:22;;;;;;;10.98;10.48;;;3.50;99.90;;;;;;4162320;28;20037;-50
2021/11/19 06:00:34;;;;;;;14.80;13.85;;;3.60;99.90;;;;;;4148758;28;20045;-51
2021/11/19 06:02:36;;;;;;;14.77;13.85;;;3.70;99.90;;;;;;4161533;28;20236;-48
2021/11/19 06:04:38;;;;;;;13.40;12.90;;;3.80;99.90;;;;;;4160877;28;20042;-51
2021/11/19 06:06:42;;;;;;;14.02;13.25;;;3.80;99.90;;;;;;4162328;28;20485;-50
2021/11/19 06:08:45;;;;;;;11.90;11.40;;;3.80;99.90;;;;;;4155286;28;20034;-51
2021/11/19 06:10:55;;;;;;;13.95;10.90;;;3.80;99.90;;;;;;4162462;28;20049;-51
2021/11/19 06:13:08;;;;;;;22.85;21.45;;;3.50;99.90;;;;;;4162045;28;20496;-52
2021/11/19 06:15:17;;;;;;;21.50;20.40;;;3.20;99.90;;;;;;4161376;28;20465;-50
2021/11/19 06:17:29;;;;;;;41.20;22.30;;;3.10;99.90;;;;;;4159656;28;20496;-50
2021/11/19 06:19:35;;;;;;;21.20;20.40;;;3.00;99.90;;;;;;4161123;28;20041;-50
2021/11/19 06:21:43;;;;;;;20.08;18.83;;;3.00;99.90;;;;;;4159344;28;20069;-52
2021/11/19 06:23:48;;;;;;;29.70;15.70;;;2.90;99.90;;;;;;4162747;28;20047;-52
2021/11/19 06:25:51;;;;;;;14.52;12.77;;;2.90;99.90;;;;;;4157498;28;20037;-48
2021/11/19 06:27:55;;;;;;;213.85;23.75;;;2.80;99.90;;;;;;4161900;28;20041;-50
2021/11/19 06:29:59;;;;;;;211.23;23.15;;;2.70;99.90;;;;;;4158759;28;20469;-48
2021/11/19 06:32:02;;;;;;;42.75;17.73;;;2.50;99.90;;;;;;4162223;28;20386;-49
2021/11/19 06:34:05;;;;;;;19.77;18.67;;;2.50;99.90;;;;;;4159668;28;20045;-47
2021/11/19 06:36:08;;;;;;;15.80;14.85;;;2.60;99.90;;;;;;4163653;28;20048;-50
2021/11/19 06:38:10;;;;;;;39.55;20.63;;;2.60;99.90;;;;;;4159515;28;20057;-48
2021/11/19 06:40:20;;;;;;;53.90;19.10;;;2.70;99.90;;;;;;4163414;28;20033;-49
2021/11/19 06:42:22;;;;;;;39.13;21.83;;;2.80;99.90;;;;;;4159909;28;20108;-47
2021/11/19 06:44:25;;;;;;;22.92;22.02;;;2.80;99.90;;;;;;4162051;28;20046;-47
2021/11/19 06:46:27;;;;;;;84.70;29.50;;;2.80;99.90;;;;;;4160038;28;20037;-48
2021/11/19 06:48:29;;;;;;;34.05;25.42;;;2.80;99.90;;;;;;4162298;28;20493;-47
2021/11/19 06:50:34;;;;;;;67.45;28.85;;;2.80;99.90;;;;;;4159828;28;20520;-48
2021/11/19 06:52:36;;;;;;;88.45;28.85;;;2.70;99.90;;;;;;4160369;28;20481;-49
2021/11/19 06:54:39;;;;;;;;;;;2.70;99.90;;;;;;4160225;28;20084;-47
2021/11/19 06:56:41;;;;;;;47.83;27.10;;;2.70;99.90;;;;;;4161908;28;19928;-47
2021/11/19 06:58:44;;;;;;;43.03;26.50;;;2.70;99.90;;;;;;4160613;28;20041;-48
2021/11/19 07:00:46;;;;;;;27.35;24.75;;;2.70;99.90;;;;;;4161321;28;20041;-48
2021/11/19 07:02:49;;;;;;;32.10;22.80;;;2.70;99.90;;;;;;4161058;28;20041;-48
2021/11/19 07:04:51;;;;;;;25.17;23.70;;;2.70;99.90;;;;;;4161468;28;20436;-47
2021/11/19 07:06:53;;;;;;;26.27;24.60;;;2.80;99.90;;;;;;4161215;28;20033;-48
2021/11/19 07:08:57;;;;;;;26.92;24.52;;;3.00;99.90;;;;;;4161155;28;20768;-48
2021/11/19 07:11:04;;;;;;;20.23;18.60;;;3.20;99.90;;;;;;4160696;28;20068;-50
2021/11/19 07:13:08;;;;;;;16.40;15.00;;;3.30;99.90;;;;;;4162404;28;20596;-47
2021/11/19 07:15:12;;;;;;;15.57;14.32;;;3.50;99.90;;;;;;4160921;28;20033;-48
2021/11/19 07:17:15;;;;;;;15.45;14.15;;;3.60;99.90;;;;;;4160783;28;20069;-50
2021/11/19 07:19:17;;;;;;;15.38;14.05;;;3.70;99.90;;;;;;4160955;28;20378;-48
2021/11/19 07:21:19;;;;;;;15.57;14.48;;;3.70;99.90;;;;;;4159559;28;20072;-48
2021/11/19 07:23:23;;;;;;;16.23;15.07;;;3.80;99.90;;;;;;4161929;28;20037;-49
2021/11/19 07:25:27;;;;;;;19.02;17.10;;;3.80;99.90;;;;;;4159371;28;20037;-50
2021/11/19 07:27:29;;;;;;;18.45;15.90;;;3.80;99.90;;;;;;4162111;28;20116;-49
2021/11/19 07:29:31;;;;;;;15.98;14.43;;;3.80;99.90;;;;;;4158259;28;20091;-51
2021/11/19 07:31:34;;;;;;;19.75;17.88;;;3.80;99.90;;;;;;4161781;28;20409;-52
2021/11/19 07:33:38;;;;;;;25.27;22.65;;;3.90;99.90;;;;;;4161252;28;20046;-51
2021/11/19 07:35:41;;;;;;;25.80;21.85;;;3.90;99.90;;;;;;4160474;28;20060;-50
2021/11/19 07:37:44;;;;;;;15.30;14.25;;;3.90;99.90;;;;;;4160088;28;20413;-49
2021/11/19 07:39:46;;;;;;;15.20;13.65;;;4.00;99.90;;;;;;4161523;28;20096;-50
2021/11/19 07:41:48;;;;;;;15.27;13.73;;;4.20;99.90;;;;;;4156981;28;20096;-50
2021/11/19 07:43:50;;;;;;;13.25;12.45;;;4.30;99.90;;;;;;4161078;28;20041;-51
2021/11/19 07:45:52;;;;;;;13.60;12.73;;;4.50;99.90;;;;;;4160289;28;20087;-49
2021/11/19 07:47:54;;;;;;;12.85;12.05;;;4.50;99.90;;;;;;4160556;28;20069;-51
2021/11/19 07:49:56;;;;;;;13.52;12.50;;;4.50;99.90;;;;;;4159845;28;20041;-49
2021/11/19 07:51:58;;;;;;;15.43;13.73;;;4.60;99.90;;;;;;4161850;28;20385;-48
2021/11/19 07:54:03;;;;;;;15.57;13.52;;;4.60;99.90;;;;;;4159139;28;20049;-52
2021/11/19 07:56:07;;;;;;;18.13;16.30;;;4.70;99.90;;;;;;4160347;28;20045;-50
2021/11/19 07:58:09;;;;;;;15.35;14.02;;;4.70;99.90;;;;;;4161161;28;20041;-51
2021/11/19 08:00:20;;;;;;;13.30;12.60;;;4.70;99.90;;;;;;4158570;28;20049;-50
2021/11/19 08:02:22;;;;;;;13.35;11.68;;;4.80;99.90;;;;;;4158461;28;20037;-50
2021/11/19 08:04:24;;;;;;;11.82;11.02;;;4.90;99.90;;;;;;4161024;28;20081;-49
2021/11/19 08:06:32;;;;;;;10.02;9.63;;;4.90;99.90;;;;;;4158727;28;20041;-52
2021/11/19 08:08:36;;;;;;;13.82;12.65;;;5.00;99.90;;;;;;4161825;28;20038;-49
2021/11/19 08:10:38;;;;;;;11.52;10.55;;;5.10;99.90;;;;;;4158450;28;20393;-49
2021/11/19 08:12:41;;;;;;;12.13;11.38;;;5.10;99.90;;;;;;4161938;28;20045;-52
2021/11/19 08:14:43;;;;;;;;;;;5.30;99.90;;;;;;4158358;28;20037;-51
2021/11/19 08:16:57;;;;;;;10.55;9.95;;;5.30;99.90;;;;;;4161021;28;19964;-50
2021/11/19 08:19:02;;;;;;;14.80;13.60;;;5.40;99.90;;;;;;4157639;28;20124;-50
2021/11/19 08:21:07;;;;;;;13.68;12.55;;;5.40;99.90;;;;;;4162227;28;20046;-49
2021/11/19 08:23:17;;;;;;;14.70;13.48;;;5.50;99.90;;;;;;4159297;28;20121;-50
2021/11/19 08:25:20;;;;;;;12.63;11.82;;;5.60;99.90;;;;;;4160833;28;20029;-50
2021/11/19 08:27:25;;;;;;;13.07;11.88;;;5.60;99.90;;;;;;4159962;28;20890;-49
2021/11/19 08:29:30;;;;;;;13.88;12.88;;;5.70;99.90;;;;;;4161943;28;20045;-51
2021/11/19 08:31:33;;;;;;;13.38;12.25;;;5.80;99.90;;;;;;4158668;28;20072;-50
2021/11/19 08:33:36;;;;;;;10.45;9.95;;;6.00;99.90;;;;;;4161875;28;21137;-50
2021/11/19 08:35:40;;;;;;;;;;;6.00;99.90;;;;;;4160201;28;20045;-50
2021/11/19 08:37:42;;;;;;;8.20;7.80;;;6.10;99.90;;;;;;4161334;28;19921;-52
2021/11/19 08:39:44;;;;;;;9.38;8.88;;;6.30;99.90;;;;;;4159539;28;20053;-52
2021/11/19 08:41:47;;;;;;;8.63;7.78;;;6.30;99.90;;;;;;4151048;28;20278;-51
2021/11/19 08:43:52;;;;;;;8.38;7.88;;;6.50;99.90;;;;;;4160457;28;20041;-52
2021/11/19 08:45:58;;;;;;;9.40;8.90;;;6.50;99.90;;;;;;4148234;28;20390;-50
2021/11/19 08:48:00;;;;;;;7.40;7.00;;;6.60;99.90;;;;;;4159232;28;20095;-50
2021/11/19 08:50:06;;;;;;;8.70;8.10;;;6.70;99.90;;;;;;4159075;28;20037;-51
2021/11/19 08:52:12;;;;;;;9.82;9.30;;;6.80;99.90;;;;;;4159613;28;20040;-53
2021/11/19 08:54:16;;;;;;;8.85;8.40;;;7.00;99.90;;;;;;4159072;28;20388;-51
2021/11/19 08:56:20;;;;;;;8.07;7.78;;;7.20;99.90;;;;;;4160484;28;20046;-51
2021/11/19 08:58:24;;;;;;;10.25;9.23;;;7.20;99.90;;;;;;4161250;28;20041;-52
2021/11/19 09:00:31;;;;;;;11.93;11.35;;;7.20;99.90;;;;;;4159521;28;20042;-51
2021/11/19 09:02:33;;;;;;;12.20;11.07;;;7.40;99.90;;;;;;4158652;28;20456;-50
2021/11/19 09:04:37;;;;;;;9.75;9.23;;;7.50;99.90;;;;;;4161060;28;20099;-52
2021/11/19 09:06:40;;;;;;;11.73;10.93;;;7.40;99.90;;;;;;4159923;28;20049;-53
2021/11/19 09:08:43;;;;;;;11.32;10.63;;;7.40;99.90;;;;;;4163086;28;20049;-53
2021/11/19 09:10:47;;;;;;;10.95;9.98;;;7.40;99.90;;;;;;4162856;28;20037;-52
2021/11/19 09:12:49;;;;;;;12.07;11.35;;;7.50;99.90;;;;;;4164396;28;20069;-50
2021/11/19 09:14:52;;;;;;;11.65;10.50;;;7.60;99.90;;;;;;4161634;28;20053;-51
2021/11/19 09:17:30;;;;;;;12.00;10.75;;;7.70;99.90;;;;;;4164564;28;20493;-51
2021/11/19 09:19:42;;;;;;;13.27;12.32;;;7.80;99.90;;;;;;4160009;28;20072;-50
2021/11/19 09:22:23;;;;;;;15.25;13.80;;;8.00;99.90;;;;;;4150948;28;20046;-49
2021/11/19 09:24:28;;;;;;;;;;;8.10;99.90;;;;;;4163740;28;20641;-49
2021/11/19 09:26:37;;;;;;;14.88;13.55;;;8.20;99.90;;;;;;4162725;28;20399;-53
2021/11/19 09:28:42;;;;;;;12.75;11.80;;;8.30;99.90;;;;;;4161377;28;20480;-49
2021/11/19 09:30:47;;;;;;;12.88;11.98;;;8.40;99.90;;;;;;4161476;28;20112;-53
2021/11/19 09:32:52;;;;;;;12.10;11.32;;;8.50;99.90;;;;;;4164013;28;20041;-48
2021/11/19 09:34:56;;;;;;;9.57;8.77;;;8.50;99.90;;;;;;4161238;28;20513;-49
2021/11/19 09:36:58;;;;;;;10.35;9.52;;;8.50;99.90;;;;;;4164322;28;20041;-51
2021/11/19 09:39:01;;;;;;;9.70;8.95;;;8.70;99.90;;;;;;4161444;28;20033;-49
2021/11/19 09:41:17;;;;;;;8.75;8.25;;;8.80;99.90;;;;;;4163133;28;20084;-52
2021/11/19 09:43:52;;;;;;;6.10;5.90;;;9.00;99.90;;;;;;4156916;28;20041;-51
2021/11/19 09:46:15;;;;;;;6.43;6.22;;;9.20;99.90;;;;;;4157949;28;20061;-50
2021/11/19 09:48:38;;;;;;;6.50;6.20;;;9.50;99.90;;;;;;4162424;28;20033;-52
2021/11/19 09:50:59;;;;;;;;;;;9.70;99.90;;;;;;4163705;28;20045;-50
2021/11/19 09:53:52;;;;;;;4.22;3.95;;;9.90;99.90;;;;;;4164079;28;19964;-47
2021/11/19 09:56:31;;;;;;;7.32;7.07;;;10.10;99.90;;;;;;4160049;28;20077;-49
2021/11/19 09:59:17;;;;;;;8.98;8.38;;;10.30;99.90;;;;;;4162552;28;20069;-49
2021/11/19 10:01:42;;;;;;;5.40;5.10;;;10.40;99.90;;;;;;4158775;28;20381;-48
2021/11/19 10:04:12;;;;;;;7.85;7.38;;;10.50;99.90;;;;;;4143039;28;20050;-47
2021/11/19 10:06:24;;;;;;;4.30;4.20;;;10.60;99.90;;;;;;4145358;28;20119;-49
2021/11/19 10:08:43;;;;;;;4.05;3.95;;;10.80;99.90;;;;;;4155316;28;20053;-47
2021/11/19 10:10:57;;;;;;;4.95;4.85;;;10.90;99.90;;;;;;4148327;28;20085;-50
2021/11/19 10:13:29;;;;;;;5.60;4.72;;;11.00;99.90;;;;;;4160775;28;20497;-48
2021/11/19 10:15:43;;;;;;;5.07;4.97;;;11.30;99.90;;;;;;4155822;28;20040;-49
2021/11/19 10:18:04;;;;;;;5.47;5.13;;;11.70;99.90;;;;;;4147653;28;20124;-50
2021/11/19 10:20:58;;;;;;;5.90;5.70;;;12.00;99.90;;;;;;4156662;28;20049;-51
2021/11/19 10:23:12;;;;;;;6.93;6.43;;;12.20;99.90;;;;;;4146475;28;20061;-49
2021/11/19 10:25:19;;;;;;;7.93;7.32;;;12.30;99.90;;;;;;4151140;28;20057;-51
2021/11/19 10:27:32;;;;;;;11.00;8.20;;;12.40;99.90;;;;;;4152690;28;20410;-49
2021/11/19 10:29:54;;;;;;;6.60;6.40;;;12.50;99.90;;;;;;4157349;28;20054;-50
2021/11/19 10:31:59;;;;;;;6.18;5.88;;;12.70;99.90;;;;;;4156582;28;20057;-50
2021/11/19 10:34:22;;;;;;;9.45;6.65;;;12.90;99.90;;;;;;4159390;28;20046;-50
2021/11/19 10:36:33;;;;;;;5.73;5.33;;;13.10;99.90;;;;;;4157478;28;20037;-50
2021/11/19 10:39:13;;;;;;;6.90;6.50;;;13.40;99.90;;;;;;4161228;28;20057;-51
2021/11/19 10:41:34;;;;;;;4.18;3.97;;;13.30;99.90;;;;;;4161512;28;20041;-50
2021/11/19 10:44:11;;;;;;;3.05;2.95;;;13.20;99.90;;;;;;4158825;28;20087;-51
2021/11/19 10:46:24;;;;;;;3.90;3.70;;;13.50;99.90;;;;;;4161834;28;20076;-50
2021/11/19 10:48:58;;;;;;;2.83;2.60;;;13.50;99.90;;;;;;4159748;28;20041;-50
2021/11/19 10:51:00;;;;;;;;;;;13.50;99.90;;;;;;4155244;28;20042;-50
2021/11/19 10:53:23;;;;;;;2.40;2.38;;;13.60;99.90;;;;;;4161536;28;19960;-50
2021/11/19 10:55:44;;;;;;;3.75;3.55;;;13.80;99.90;;;;;;4160022;28;20057;-51
2021/11/19 10:58:07;;;;;;;3.88;3.70;;;14.30;99.90;;;;;;4161440;28;20393;-51